Time;durP1;ratioP1;P1;durP2;ratioP2;P2;SDS_P1;SDS_P2;PMS_P1;PMS_P2;Temp;Humidity;BMP_temperature;BMP_pressure;BME280_temperature;BME280_humidity;BME280_pressure;Samples;Min_cycle;Max_cycle;Signal;HPM_P1;HPM_P2
2024/04/04 00:01:55;;;;;;;2.10;1.40;;;8.10;93.60;;;;;;5052434;28;20277;-67
2024/04/04 00:04:21;;;;;;;4.30;1.43;;;8.10;93.90;;;;;;5053122;28;20198;-66
2024/04/04 00:06:48;;;;;;;2.80;1.20;;;8.10;94.10;;;;;;5052953;28;20304;-66
2024/04/04 00:09:14;;;;;;;4.07;1.40;;;8.00;94.20;;;;;;5053848;28;20197;-66
2024/04/04 00:11:43;;;;;;;2.97;1.07;;;8.00;94.30;;;;;;5052637;28;20224;-66
2024/04/04 00:14:09;;;;;;;2.03;1.13;;;7.90;94.30;;;;;;5055957;28;20230;-66
2024/04/04 00:16:36;;;;;;;2.27;1.00;;;7.90;94.40;;;;;;5051788;28;20205;-65
2024/04/04 00:19:04;;;;;;;1.33;0.80;;;8.00;94.60;;;;;;5051966;28;20676;-66
2024/04/04 00:21:31;;;;;;;1.33;0.90;;;8.00;94.50;;;;;;5052700;28;20206;-66
2024/04/04 00:23:57;;;;;;;1.10;1.00;;;8.00;94.60;;;;;;5053248;28;20560;-66
2024/04/04 00:26:24;;;;;;;0.57;0.57;;;8.00;94.60;;;;;;5053306;28;20199;-66
2024/04/04 00:28:51;;;;;;;3.50;0.90;;;7.90;94.70;;;;;;5053152;28;20210;-66
2024/04/04 00:31:19;;;;;;;1.77;1.00;;;7.90;94.90;;;;;;5052434;28;20673;-67
2024/04/04 00:33:46;;;;;;;1.67;1.20;;;7.90;95.00;;;;;;5051128;28;20201;-67
2024/04/04 00:36:14;;;;;;;0.90;0.90;;;7.90;95.10;;;;;;5052914;28;20186;-66
2024/04/04 00:38:41;;;;;;;1.67;0.93;;;7.80;95.00;;;;;;5055979;28;20700;-67
2024/04/04 00:41:07;;;;;;;1.93;0.80;;;7.80;95.10;;;;;;5053080;28;20185;-66
2024/04/04 00:43:34;;;;;;;1.43;1.17;;;7.80;95.20;;;;;;5052709;28;20272;-67
2024/04/04 00:46:03;;;;;;;2.90;1.60;;;7.80;95.20;;;;;;5049740;28;20230;-67
2024/04/04 00:48:30;;;;;;;3.20;1.70;;;7.90;95.30;;;;;;5050875;28;20190;-67
2024/04/04 00:50:56;;;;;;;1.80;1.23;;;7.90;95.20;;;;;;5052010;28;20202;-67
2024/04/04 00:53:27;;;;;;;1.10;1.00;;;7.90;95.20;;;;;;5052127;28;20296;-67
2024/04/04 00:55:54;;;;;;;0.80;0.80;;;7.80;95.10;;;;;;5052922;28;20209;-66
2024/04/04 00:58:22;;;;;;;0.70;0.70;;;7.70;95.10;;;;;;5052703;28;20212;-67
2024/04/04 01:00:48;;;;;;;1.83;0.90;;;7.70;95.30;;;;;;5048143;28;20677;-67
2024/04/04 01:03:16;;;;;;;1.07;0.90;;;7.60;95.40;;;;;;5050026;28;20239;-67
2024/04/04 01:05:42;;;;;;;1.13;0.70;;;7.60;95.40;;;;;;5052579;28;20257;-67
2024/04/04 01:08:10;;;;;;;0.80;0.67;;;7.60;95.40;;;;;;5050986;28;20186;-67
2024/04/04 01:10:39;;;;;;;0.50;0.50;;;7.70;95.50;;;;;;5052707;28;20209;-67
2024/04/04 01:13:06;;;;;;;0.60;0.57;;;7.60;95.50;;;;;;5052005;28;20561;-66
2024/04/04 01:15:32;;;;;;;0.70;0.70;;;7.60;95.60;;;;;;5052627;28;20234;-67
2024/04/04 01:18:00;;;;;;;0.60;0.60;;;7.60;95.60;;;;;;5051311;28;20190;-66
2024/04/04 01:20:26;;;;;;;1.03;0.80;;;7.50;95.70;;;;;;5049851;28;20216;-66
2024/04/04 01:22:53;;;;;;;0.50;0.50;;;7.50;95.80;;;;;;5052164;28;20200;-66
2024/04/04 01:25:21;;;;;;;1.50;0.60;;;7.60;95.90;;;;;;5052625;28;20190;-65
2024/04/04 01:27:49;;;;;;;0.77;0.67;;;7.60;95.90;;;;;;5052395;28;20202;-66
2024/04/04 01:30:15;;;;;;;0.40;0.40;;;7.60;95.90;;;;;;5052372;28;20244;-66
2024/04/04 01:32:43;;;;;;;0.80;0.60;;;7.50;95.90;;;;;;5050781;28;20329;-67
2024/04/04 01:35:09;;;;;;;0.60;0.60;;;7.50;95.90;;;;;;5048180;28;20194;-67
2024/04/04 01:37:36;;;;;;;0.60;0.53;;;7.40;96.00;;;;;;5052054;28;20674;-67
2024/04/04 01:40:04;;;;;;;2.50;1.00;;;7.40;96.10;;;;;;5052356;28;20182;-67
2024/04/04 01:42:32;;;;;;;2.60;1.20;;;7.50;96.10;;;;;;5053035;28;20255;-67
2024/04/04 01:44:59;;;;;;;0.73;0.70;;;7.50;96.20;;;;;;5047488;28;20186;-67
2024/04/04 01:47:26;;;;;;;1.00;1.00;;;7.50;96.20;;;;;;5048522;28;20595;-67
2024/04/04 01:49:52;;;;;;;1.80;1.07;;;7.40;96.20;;;;;;5050228;28;20209;-67
2024/04/04 01:52:19;;;;;;;1.40;1.10;;;7.30;96.20;;;;;;5049623;28;20210;-67
2024/04/04 01:54:45;;;;;;;2.43;1.70;;;7.30;96.30;;;;;;5052131;28;20205;-66
2024/04/04 01:57:12;;;;;;;4.03;2.23;;;7.40;96.50;;;;;;5051214;28;20190;-67
2024/04/04 01:59:40;;;;;;;5.33;2.90;;;7.40;96.70;;;;;;5052263;28;20280;-67
2024/04/04 02:02:07;;;;;;;3.83;2.40;;;7.40;96.70;;;;;;5050266;28;20197;-67
2024/04/04 02:04:33;;;;;;;5.40;2.70;;;7.30;96.60;;;;;;5041171;28;20194;-67
2024/04/04 02:07:00;;;;;;;2.60;2.13;;;7.30;96.80;;;;;;5048941;28;20194;-67
2024/04/04 02:09:27;;;;;;;2.37;2.00;;;7.30;96.80;;;;;;5051847;28;20198;-67
2024/04/04 02:11:55;;;;;;;4.07;3.07;;;7.30;96.80;;;;;;5049653;28;20240;-67
2024/04/04 02:14:21;;;;;;;5.00;2.93;;;7.30;96.90;;;;;;5051184;28;20233;-67
2024/04/04 02:16:49;;;;;;;3.13;2.17;;;7.30;96.90;;;;;;5049777;28;20198;-67
2024/04/04 02:19:16;;;;;;;2.33;2.10;;;7.30;97.20;;;;;;5049502;28;20194;-67
2024/04/04 02:21:43;;;;;;;3.77;2.10;;;7.20;96.90;;;;;;5051650;28;20217;-68
2024/04/04 02:24:09;;;;;;;2.70;1.90;;;7.10;97.00;;;;;;5050188;28;20212;-68
2024/04/04 02:26:36;;;;;;;5.67;2.60;;;7.20;97.20;;;;;;5051423;28;20276;-68
2024/04/04 02:29:02;;;;;;;2.57;2.37;;;7.30;97.30;;;;;;5051060;28;20201;-67
2024/04/04 02:31:29;;;;;;;3.80;2.10;;;7.30;97.20;;;;;;5047596;28;20186;-67
2024/04/04 02:33:57;;;;;;;2.37;1.90;;;7.30;97.20;;;;;;5049522;28;20198;-67
2024/04/04 02:36:28;;;;;;;2.17;1.70;;;7.30;97.20;;;;;;5050019;28;20196;-67
2024/04/04 02:38:54;;;;;;;1.90;1.70;;;7.30;97.20;;;;;;5051242;28;20194;-67
2024/04/04 02:41:21;;;;;;;7.43;3.90;;;7.40;97.20;;;;;;5052049;28;20631;-67
2024/04/04 02:43:47;;;;;;;5.83;2.90;;;7.40;97.30;;;;;;5048832;28;20225;-68
2024/04/04 02:46:15;;;;;;;7.37;3.53;;;6.60;96.90;;;;;;5051152;28;20185;-68
2024/04/04 02:48:42;;;;;;;6.73;3.57;;;7.40;97.20;;;;;;5048982;28;20198;-68
2024/04/04 02:51:12;;;;;;;4.53;3.30;;;7.40;97.30;;;;;;5048851;28;20541;-68
2024/04/04 02:53:38;;;;;;;3.53;2.93;;;7.40;97.30;;;;;;5046489;28;21281;-68
2024/04/04 02:56:06;;;;;;;4.70;2.90;;;7.40;97.30;;;;;;5050933;28;20211;-69
2024/04/04 02:58:32;;;;;;;3.57;2.33;;;7.40;97.50;;;;;;5048698;28;20186;-67
2024/04/04 03:01:05;;;;;;;2.53;1.90;;;7.40;97.50;;;;;;5050166;28;20185;-67
2024/04/04 03:03:31;;;;;;;2.63;1.83;;;7.40;97.50;;;;;;5048433;28;20191;-67
2024/04/04 03:05:58;;;;;;;4.03;2.60;;;7.30;97.50;;;;;;5050336;28;20217;-67
2024/04/04 03:08:26;;;;;;;4.40;2.63;;;7.30;97.70;;;;;;5050036;28;20537;-66
2024/04/04 03:10:53;;;;;;;5.13;2.80;;;7.30;97.80;;;;;;5050408;28;20285;-67
2024/04/04 03:13:19;;;;;;;6.80;2.43;;;7.30;97.80;;;;;;5049484;28;20210;-67
2024/04/04 03:15:55;;;;;;;2.53;2.03;;;7.30;97.70;;;;;;5041837;28;20758;-67
2024/04/04 03:18:21;;;;;;;3.70;2.50;;;7.30;97.70;;;;;;5048152;28;20652;-67
2024/04/04 03:20:48;;;;;;;10.00;3.87;;;7.30;97.80;;;;;;5049819;28;20190;-67
2024/04/04 03:23:15;;;;;;;5.87;3.23;;;7.30;97.80;;;;;;5049576;28;20211;-67
2024/04/04 03:25:43;;;;;;;8.43;3.30;;;7.30;97.90;;;;;;5046810;28;20217;-67
2024/04/04 03:28:10;;;;;;;2.80;2.40;;;7.30;97.90;;;;;;5049297;28;20255;-67
2024/04/04 03:30:37;;;;;;;2.80;2.10;;;7.40;98.00;;;;;;5053495;28;20197;-67
2024/04/04 03:33:04;;;;;;;3.43;2.40;;;7.30;97.90;;;;;;5048917;28;20216;-67
2024/04/04 03:35:31;;;;;;;5.87;2.80;;;7.30;97.90;;;;;;5045134;28;20625;-66
2024/04/04 03:37:57;;;;;;;6.50;3.17;;;7.30;97.80;;;;;;5041628;28;20278;-67
2024/04/04 03:40:25;;;;;;;4.23;2.20;;;7.40;97.70;;;;;;5050080;28;20268;-68
2024/04/04 03:42:54;;;;;;;2.80;2.20;;;7.30;97.60;;;;;;5049996;28;20198;-67
2024/04/04 03:45:22;;;;;;;6.13;2.03;;;7.30;97.60;;;;;;5050405;28;20182;-67
2024/04/04 03:47:48;;;;;;;9.33;2.50;;;7.40;97.60;;;;;;5047060;28;20213;-67
2024/04/04 03:50:15;;;;;;;4.70;1.80;;;7.40;97.40;;;;;;5049712;28;20186;-67
2024/04/04 03:52:41;;;;;;;3.63;1.80;;;7.40;97.20;;;;;;5048716;28;20313;-67
2024/04/04 03:55:08;;;;;;;5.50;2.20;;;7.40;97.10;;;;;;5050160;28;20293;-66
2024/04/04 03:57:34;;;;;;;2.50;1.83;;;7.40;96.80;;;;;;5049349;28;20213;-67
2024/04/04 04:00:06;;;;;;;3.20;1.60;;;7.30;96.80;;;;;;5049905;28;20199;-66
2024/04/04 04:02:32;;;;;;;3.90;1.70;;;7.30;96.50;;;;;;5047515;28;20669;-66
2024/04/04 04:05:03;;;;;;;2.97;1.40;;;7.20;96.30;;;;;;5049011;28;20185;-66
2024/04/04 04:07:29;;;;;;;2.03;1.33;;;7.20;96.20;;;;;;5045274;28;20244;-67
2024/04/04 04:09:56;;;;;;;1.80;1.33;;;7.20;96.20;;;;;;5050037;28;20668;-66
2024/04/04 04:12:22;;;;;;;4.23;1.50;;;7.10;96.10;;;;;;5049179;28;20745;-67
2024/04/04 04:14:51;;;;;;;3.73;1.30;;;7.10;96.30;;;;;;5050053;28;20316;-67
2024/04/04 04:17:18;;;;;;;1.97;1.30;;;7.10;96.30;;;;;;5047329;28;20224;-68
2024/04/04 04:19:46;;;;;;;1.20;1.10;;;7.10;96.40;;;;;;5049333;28;20202;-67
2024/04/04 04:22:12;;;;;;;3.63;1.80;;;7.00;96.40;;;;;;5048877;28;20190;-67
2024/04/04 04:24:39;;;;;;;4.53;2.00;;;7.10;96.50;;;;;;5042852;28;20185;-67
2024/04/04 04:27:06;;;;;;;5.57;1.80;;;7.10;96.30;;;;;;5050189;28;20202;-67
2024/04/04 04:29:32;;;;;;;1.97;1.50;;;7.10;96.20;;;;;;5052588;28;20202;-67
2024/04/04 04:31:59;;;;;;;2.73;1.17;;;7.00;96.30;;;;;;5051278;28;20268;-66
2024/04/04 04:34:27;;;;;;;3.53;1.50;;;7.00;96.40;;;;;;5052582;28;20249;-67
2024/04/04 04:37:00;;;;;;;3.63;1.60;;;6.90;96.30;;;;;;5052503;28;20665;-65
2024/04/04 04:39:28;;;;;;;3.57;1.17;;;6.90;96.30;;;;;;5053379;28;20188;-65
2024/04/04 04:41:55;;;;;;;1.83;1.00;;;6.90;96.30;;;;;;5043075;28;20660;-66
2024/04/04 04:44:21;;;;;;;2.37;1.07;;;6.90;96.30;;;;;;5047378;28;20212;-66
2024/04/04 04:46:49;;;;;;;0.90;0.90;;;6.90;96.30;;;;;;5044914;28;20188;-66
2024/04/04 04:49:15;;;;;;;3.60;1.57;;;6.90;96.30;;;;;;5051469;28;20212;-68
2024/04/04 04:51:43;;;;;;;7.00;1.93;;;6.90;96.40;;;;;;5052733;28;20269;-67
2024/04/04 04:54:11;;;;;;;4.10;1.67;;;6.90;96.40;;;;;;5046411;28;20248;-67
2024/04/04 04:56:38;;;;;;;4.30;1.83;;;6.80;96.20;;;;;;5053057;28;20196;-67
2024/04/04 04:59:05;;;;;;;2.93;1.60;;;6.80;96.20;;;;;;5047376;28;20206;-66
2024/04/04 05:01:32;;;;;;;4.60;2.30;;;6.80;96.20;;;;;;5052342;28;20190;-66
2024/04/04 05:03:58;;;;;;;6.70;3.20;;;6.70;96.20;;;;;;5050978;28;20189;-66
2024/04/04 05:06:26;;;;;;;6.67;3.10;;;6.70;96.60;;;;;;5049303;28;20214;-67
2024/04/04 05:08:53;;;;;;;11.00;4.37;;;6.70;96.30;;;;;;5052483;28;20536;-66
2024/04/04 05:11:21;;;;;;;4.57;3.10;;;6.70;96.50;;;;;;5052723;28;20261;-67
2024/04/04 05:13:47;;;;;;;5.63;2.30;;;6.70;96.60;;;;;;5052535;28;20225;-67
2024/04/04 05:16:14;;;;;;;3.67;1.63;;;6.70;96.60;;;;;;5051414;28;20193;-66
2024/04/04 05:18:40;;;;;;;3.97;1.80;;;6.70;96.60;;;;;;5050533;28;20200;-66
2024/04/04 05:21:07;;;;;;;3.27;1.60;;;6.70;96.80;;;;;;5052476;28;20178;-67
2024/04/04 05:23:33;;;;;;;3.13;1.30;;;6.70;96.80;;;;;;5051780;28;20178;-67
2024/04/04 05:26:02;;;;;;;2.93;1.60;;;6.70;96.80;;;;;;5050894;28;20195;-67
2024/04/04 05:28:30;;;;;;;2.43;1.67;;;6.70;97.00;;;;;;5051813;28;20208;-68
2024/04/04 05:30:59;;;;;;;3.30;1.83;;;6.70;97.10;;;;;;5050416;28;20195;-67
2024/04/04 05:33:26;;;;;;;2.40;1.50;;;6.70;97.20;;;;;;5050313;28;20286;-67
2024/04/04 05:35:53;;;;;;;3.10;1.73;;;6.80;97.20;;;;;;5052151;28;20201;-67
2024/04/04 05:38:20;;;;;;;12.97;4.30;;;6.80;97.40;;;;;;5051485;28;20198;-68
2024/04/04 05:40:47;;;;;;;15.23;6.07;;;6.80;97.50;;;;;;5046804;28;20641;-67
2024/04/04 05:43:14;;;;;;;13.43;6.13;;;6.80;97.70;;;;;;5046584;28;20197;-67
2024/04/04 05:45:42;;;;;;;14.40;5.27;;;6.80;97.70;;;;;;5052102;28;20200;-68
2024/04/04 05:48:08;;;;;;;9.17;3.30;;;6.80;97.70;;;;;;5045727;28;20197;-67
2024/04/04 05:50:35;;;;;;;3.73;2.13;;;6.80;97.90;;;;;;5049556;28;20236;-68
2024/04/04 05:53:01;;;;;;;3.83;2.30;;;6.80;97.90;;;;;;5050081;28;20272;-67
2024/04/04 05:55:29;;;;;;;7.70;2.27;;;6.80;98.10;;;;;;5047195;28;20556;-67
2024/04/04 05:57:55;;;;;;;5.43;1.90;;;6.90;98.40;;;;;;5047898;28;20208;-65
2024/04/04 06:00:24;;;;;;;4.40;1.50;;;6.90;98.40;;;;;;5051206;28;20228;-65
2024/04/04 06:02:51;;;;;;;3.67;1.97;;;6.90;98.50;;;;;;5045037;28;20197;-66
2024/04/04 06:05:19;;;;;;;4.57;1.83;;;6.90;98.70;;;;;;5029560;28;20283;-66
2024/04/04 06:07:45;;;;;;;16.87;5.90;;;6.80;98.80;;;;;;5042467;28;20291;-68
2024/04/04 06:10:12;;;;;;;12.93;5.23;;;6.80;99.10;;;;;;5044882;28;20226;-67
2024/04/04 06:12:38;;;;;;;7.13;3.50;;;6.80;99.40;;;;;;5043643;28;20252;-67
2024/04/04 06:15:06;;;;;;;6.33;2.77;;;6.80;99.40;;;;;;5048238;28;20318;-70
2024/04/04 06:17:34;;;;;;;4.10;2.03;;;6.80;99.70;;;;;;5048419;28;20342;-68
2024/04/04 06:20:01;;;;;;;8.87;3.10;;;6.80;99.80;;;;;;5049868;28;20773;-68
2024/04/04 06:22:27;;;;;;;10.93;4.13;;;6.80;99.90;;;;;;5047661;28;20210;-69
2024/04/04 06:24:54;;;;;;;23.67;5.33;;;6.70;99.90;;;;;;5046672;28;20207;-68
2024/04/04 06:27:21;;;;;;;10.73;4.57;;;6.70;99.90;;;;;;5046655;28;20209;-69
2024/04/04 06:29:48;;;;;;;8.70;4.30;;;6.80;99.90;;;;;;5048637;28;20185;-68
2024/04/04 06:32:14;;;;;;;7.10;3.00;;;6.80;99.90;;;;;;5047451;28;20197;-69
2024/04/04 06:34:42;;;;;;;7.13;2.70;;;6.70;99.90;;;;;;5044805;28;20185;-68
2024/04/04 06:37:09;;;;;;;5.37;2.67;;;6.70;99.90;;;;;;5048948;28;20251;-69
2024/04/04 06:39:36;;;;;;;4.67;2.30;;;6.70;99.90;;;;;;5047246;28;20207;-69
2024/04/04 06:42:02;;;;;;;2.93;2.33;;;6.70;99.90;;;;;;5046731;28;20236;-69
2024/04/04 06:44:29;;;;;;;6.00;2.67;;;6.70;99.90;;;;;;5051527;28;20185;-69
2024/04/04 06:46:57;;;;;;;4.23;2.37;;;6.70;99.90;;;;;;5047528;28;20206;-69
2024/04/04 06:49:24;;;;;;;4.77;2.27;;;6.60;99.90;;;;;;5047039;28;20210;-69
2024/04/04 06:51:53;;;;;;;4.10;2.07;;;6.60;99.90;;;;;;5045877;28;20292;-68
2024/04/04 06:54:20;;;;;;;8.97;2.60;;;6.60;99.90;;;;;;5049135;28;20705;-70
2024/04/04 06:56:46;;;;;;;3.40;2.40;;;6.60;99.90;;;;;;5047955;28;20943;-68
2024/04/04 06:59:14;;;;;;;3.20;1.80;;;6.50;99.90;;;;;;5048235;28;20280;-69
2024/04/04 07:01:40;;;;;;;8.43;2.50;;;6.50;99.90;;;;;;5048199;28;20208;-69
2024/04/04 07:04:08;;;;;;;2.90;2.00;;;6.50;99.90;;;;;;5047104;28;20187;-68
2024/04/04 07:06:34;;;;;;;4.97;2.00;;;6.50;99.90;;;;;;5047520;28;20652;-68
2024/04/04 07:09:06;;;;;;;5.33;2.50;;;6.50;99.90;;;;;;5048530;28;20191;-68
2024/04/04 07:11:32;;;;;;;8.70;2.67;;;6.60;99.90;;;;;;5045797;28;20209;-69
2024/04/04 07:14:00;;;;;;;5.83;2.63;;;6.60;99.90;;;;;;5048104;28;20290;-69
2024/04/04 07:16:26;;;;;;;3.90;2.30;;;6.60;99.90;;;;;;5046295;28;20207;-69
2024/04/04 07:18:53;;;;;;;4.03;2.20;;;6.60;99.90;;;;;;5044234;28;20203;-69
2024/04/04 07:21:19;;;;;;;4.17;2.50;;;6.50;99.90;;;;;;5037432;28;20678;-69
2024/04/04 07:23:46;;;;;;;3.60;1.80;;;6.50;99.90;;;;;;5048392;28;20240;-69
2024/04/04 07:26:15;;;;;;;4.67;2.23;;;6.40;99.90;;;;;;5048375;28;20688;-68
2024/04/04 07:28:42;;;;;;;8.50;2.50;;;6.40;99.90;;;;;;5048280;28;20208;-69
2024/04/04 07:31:08;;;;;;;5.43;3.03;;;6.50;99.90;;;;;;5050297;28;20300;-69
2024/04/04 07:33:35;;;;;;;6.70;2.93;;;6.50;99.90;;;;;;5046931;28;20717;-69
2024/04/04 07:36:02;;;;;;;5.63;2.30;;;6.50;99.90;;;;;;5043920;28;20207;-69
2024/04/04 07:38:29;;;;;;;5.60;2.20;;;6.50;99.90;;;;;;5047314;28;20198;-70
2024/04/04 07:40:55;;;;;;;4.60;1.90;;;6.50;99.90;;;;;;5047634;28;20210;-70
2024/04/04 07:43:23;;;;;;;4.40;2.43;;;6.50;99.90;;;;;;5045335;28;20200;-69
2024/04/04 07:45:50;;;;;;;3.23;1.80;;;6.50;99.90;;;;;;5054645;28;20229;-70
2024/04/04 07:48:18;;;;;;;4.80;2.20;;;6.50;99.90;;;;;;5040231;28;20210;-70
2024/04/04 07:50:46;;;;;;;5.17;2.50;;;6.50;99.90;;;;;;5048043;28;20191;-68
2024/04/04 07:53:13;;;;;;;4.53;2.20;;;6.50;99.90;;;;;;5046806;28;20261;-71
2024/04/04 07:55:39;;;;;;;8.90;2.57;;;6.40;99.90;;;;;;5049727;28;20195;-70
2024/04/04 07:58:07;;;;;;;7.00;3.00;;;6.40;99.90;;;;;;5046560;28;20188;-70
2024/04/04 08:00:36;;;;;;;5.50;2.80;;;6.40;99.90;;;;;;5049212;28;20214;-70
2024/04/04 08:03:03;;;;;;;6.40;2.37;;;6.40;99.90;;;;;;5052892;28;20507;-69
2024/04/04 08:05:31;;;;;;;4.80;2.40;;;6.40;99.90;;;;;;5051029;28;20199;-69
2024/04/04 08:07:58;;;;;;;6.50;2.60;;;6.30;99.90;;;;;;5049718;28;20285;-68
2024/04/04 08:10:26;;;;;;;4.33;2.37;;;6.40;99.90;;;;;;5057226;28;20373;-69
2024/04/04 08:12:53;;;;;;;3.73;2.00;;;6.30;99.90;;;;;;5047034;28;20223;-69
2024/04/04 08:15:19;;;;;;;3.77;1.87;;;6.40;99.90;;;;;;5051494;28;20593;-69
2024/04/04 08:17:50;;;;;;;3.37;2.40;;;6.40;99.90;;;;;;5048478;28;20260;-68
2024/04/04 08:20:16;;;;;;;4.00;2.33;;;6.40;99.90;;;;;;5048868;28;20285;-69
2024/04/04 08:22:46;;;;;;;6.50;2.40;;;6.40;99.90;;;;;;5050144;28;20371;-68
2024/04/04 08:25:13;;;;;;;4.00;2.00;;;6.40;99.90;;;;;;5052006;28;20716;-69
2024/04/04 08:27:40;;;;;;;3.27;2.27;;;6.40;99.90;;;;;;5044616;28;20275;-69
2024/04/04 08:30:11;;;;;;;3.77;2.50;;;6.50;99.90;;;;;;5059247;28;20201;-69
2024/04/04 08:32:38;;;;;;;3.10;2.30;;;5.60;99.90;;;;;;5055089;28;20464;-70
2024/04/04 08:35:07;;;;;;;5.27;2.90;;;6.50;99.90;;;;;;5049987;28;20644;-70
2024/04/04 08:37:34;;;;;;;5.30;2.90;;;6.60;99.90;;;;;;5049250;28;20569;-69
2024/04/04 08:40:01;;;;;;;5.73;2.90;;;6.60;99.90;;;;;;5066228;28;20201;-70
2024/04/04 08:42:30;;;;;;;3.67;2.37;;;6.60;99.90;;;;;;5049271;28;20209;-69
2024/04/04 08:44:57;;;;;;;3.47;2.03;;;6.60;99.90;;;;;;5051001;28;20223;-69
2024/04/04 08:47:26;;;;;;;4.33;1.97;;;6.60;99.90;;;;;;5050419;28;20187;-69
2024/04/04 08:49:52;;;;;;;6.23;2.17;;;6.50;99.90;;;;;;5048375;28;20219;-69
2024/04/04 08:52:21;;;;;;;3.50;1.87;;;6.50;99.90;;;;;;5054345;28;20183;-70
2024/04/04 08:54:47;;;;;;;6.47;2.80;;;6.50;99.90;;;;;;5051286;28;20249;-69
2024/04/04 08:57:17;;;;;;;3.93;2.00;;;6.60;99.90;;;;;;5044480;28;20281;-69
2024/04/04 08:59:54;;;;;;;4.60;2.27;;;6.60;99.90;;;;;;5050781;28;20243;-69
2024/04/04 09:02:21;;;;;;;3.50;2.20;;;6.60;99.90;;;;;;5058110;28;20194;-69
2024/04/04 09:04:49;;;;;;;3.53;2.07;;;6.70;99.90;;;;;;5049863;28;20200;-70
2024/04/04 09:07:19;;;;;;;4.00;1.97;;;6.60;99.90;;;;;;5050580;28;20648;-69
2024/04/04 09:09:47;;;;;;;4.97;3.00;;;6.70;99.90;;;;;;5050727;28;20260;-69
2024/04/04 09:12:20;;;;;;;3.67;2.60;;;6.70;99.90;;;;;;5049100;28;20225;-68
2024/04/04 09:14:56;;;;;;;8.47;2.60;;;6.80;99.90;;;;;;5048632;28;20605;-69
2024/04/04 09:17:26;;;;;;;6.40;2.73;;;6.80;99.90;;;;;;5048158;28;20195;-68
2024/04/04 09:19:54;;;;;;;4.33;2.13;;;7.40;99.90;;;;;;5046826;28;20215;-69
2024/04/04 09:22:25;;;;;;;5.00;2.77;;;6.80;99.90;;;;;;5049847;28;20252;-68
2024/04/04 09:24:56;;;;;;;4.63;2.00;;;6.80;99.90;;;;;;5050850;28;20198;-69
2024/04/04 09:27:23;;;;;;;4.80;2.50;;;6.80;99.90;;;;;;5050589;28;20187;-70
2024/04/04 09:29:52;;;;;;;5.17;2.73;;;6.80;99.90;;;;;;5034997;28;20300;-68
2024/04/04 09:32:20;;;;;;;6.27;2.17;;;6.90;99.90;;;;;;5044295;28;20199;-69
2024/04/04 09:34:48;;;;;;;4.33;2.40;;;6.90;99.90;;;;;;5036976;28;20578;-69
2024/04/04 09:37:15;;;;;;;3.23;2.13;;;6.70;99.90;;;;;;5051673;28;20355;-69
2024/04/04 09:39:42;;;;;;;4.23;2.33;;;6.90;99.90;;;;;;5050071;28;20279;-69
2024/04/04 09:42:11;;;;;;;3.60;2.43;;;6.90;99.90;;;;;;5049956;28;20248;-69
2024/04/04 09:44:37;;;;;;;3.60;2.37;;;6.90;99.90;;;;;;5049656;28;20195;-69
2024/04/04 09:47:05;;;;;;;3.50;2.10;;;7.00;99.90;;;;;;5048907;28;20264;-69
2024/04/04 09:49:32;;;;;;;7.07;3.17;;;7.00;99.90;;;;;;5047719;28;20217;-70
2024/04/04 09:52:01;;;;;;;3.80;3.00;;;7.00;99.90;;;;;;5043382;28;20203;-69
2024/04/04 09:54:29;;;;;;;2.43;2.23;;;7.00;99.90;;;;;;5047965;28;20221;-70
2024/04/04 09:56:57;;;;;;;3.63;3.10;;;7.00;99.90;;;;;;5044187;28;20203;-69
2024/04/04 09:59:26;;;;;;;2.83;2.63;;;7.00;99.90;;;;;;5047799;28;20301;-70
2024/04/04 10:01:54;;;;;;;4.97;2.80;;;7.00;99.90;;;;;;5048688;28;20225;-69
2024/04/04 10:04:20;;;;;;;5.77;3.30;;;7.00;99.90;;;;;;5048952;28;20245;-70
2024/04/04 10:06:57;;;;;;;3.33;2.83;;;7.00;99.90;;;;;;5049058;28;20294;-69
2024/04/04 10:09:25;;;;;;;5.13;2.90;;;7.00;99.90;;;;;;5047708;28;20354;-69
2024/04/04 10:11:53;;;;;;;5.87;3.77;;;7.00;99.90;;;;;;5051896;28;20198;-68
2024/04/04 10:14:21;;;;;;;3.20;2.77;;;7.10;99.90;;;;;;5046720;28;20585;-68
2024/04/04 10:16:52;;;;;;;3.57;3.00;;;7.10;99.90;;;;;;5050366;28;20267;-68
2024/04/04 10:19:20;;;;;;;3.23;2.50;;;7.10;99.90;;;;;;5048442;28;20193;-68
2024/04/04 10:21:47;;;;;;;3.70;2.77;;;7.20;99.90;;;;;;5044537;28;20278;-68
2024/04/04 10:24:19;;;;;;;4.50;3.47;;;7.20;99.90;;;;;;5047352;28;20198;-69
2024/04/04 10:26:54;;;;;;;4.63;3.97;;;7.30;99.90;;;;;;5050428;28;20224;-69
2024/04/04 10:29:20;;;;;;;6.17;3.63;;;7.30;99.90;;;;;;5044246;28;20193;-69
2024/04/04 10:31:50;;;;;;;3.43;3.13;;;7.40;99.90;;;;;;5047387;28;20207;-69
2024/04/04 10:34:16;;;;;;;3.27;2.97;;;7.30;99.90;;;;;;5047534;28;20193;-70
2024/04/04 10:36:44;;;;;;;5.00;3.20;;;7.30;99.90;;;;;;5048557;28;20542;-69
2024/04/04 10:39:13;;;;;;;5.07;3.43;;;7.40;99.90;;;;;;5048914;28;20201;-68
2024/04/04 10:41:41;;;;;;;4.13;3.27;;;7.40;99.90;;;;;;5048958;28;20263;-69
2024/04/04 10:44:13;;;;;;;3.63;3.17;;;7.40;99.90;;;;;;5049261;28;20262;-70
2024/04/04 10:46:49;;;;;;;4.27;3.20;;;7.30;99.90;;;;;;5048875;28;20218;-69
2024/04/04 10:49:19;;;;;;;3.33;2.70;;;7.40;99.90;;;;;;5035663;28;20198;-69
2024/04/04 10:51:53;;;;;;;4.13;3.33;;;7.40;99.90;;;;;;5046629;28;20194;-68
2024/04/04 10:54:24;;;;;;;3.90;2.73;;;7.30;99.90;;;;;;5049198;28;20212;-69
2024/04/04 10:56:51;;;;;;;6.33;3.97;;;7.40;99.90;;;;;;5048859;28;20194;-69
2024/04/04 11:02:08;;;;;;;7.93;4.57;;;7.30;99.90;;;;;;5054088;28;20719;-69
2024/04/04 11:04:36;;;;;;;7.47;4.07;;;7.40;99.90;;;;;;5048142;28;20199;-68
2024/04/04 11:07:06;;;;;;;8.83;4.57;;;7.30;99.90;;;;;;5046803;28;20196;-67
2024/04/04 11:09:33;;;;;;;6.40;4.27;;;7.30;99.90;;;;;;5048128;28;20190;-68
2024/04/04 11:12:01;;;;;;;9.03;4.73;;;7.30;99.90;;;;;;5051401;28;20269;-68
2024/04/04 11:14:27;;;;;;;9.17;4.60;;;7.30;99.90;;;;;;5053848;28;20243;-68
2024/04/04 11:16:56;;;;;;;6.40;4.20;;;7.30;99.90;;;;;;5052224;28;20189;-68
2024/04/04 11:19:24;;;;;;;8.10;3.80;;;7.30;99.90;;;;;;5050083;28;20190;-68
2024/04/04 11:21:51;;;;;;;11.73;5.80;;;7.20;99.90;;;;;;5046270;28;20312;-69
2024/04/04 11:24:19;;;;;;;10.47;5.13;;;7.50;99.90;;;;;;5054831;28;20216;-68
2024/04/04 11:26:46;;;;;;;9.10;5.53;;;7.40;99.90;;;;;;5047942;28;20199;-69
2024/04/04 11:29:12;;;;;;;9.17;4.50;;;7.40;99.90;;;;;;5048290;28;20209;-69
2024/04/04 11:31:58;;;;;;;10.17;5.20;;;7.50;99.90;;;;;;5048316;28;20604;-68
2024/04/04 11:34:25;;;;;;;5.23;4.00;;;7.50;99.90;;;;;;5048994;28;20214;-69
2024/04/04 11:36:53;;;;;;;7.93;4.50;;;7.50;99.90;;;;;;5049209;28;20241;-69
2024/04/04 11:39:20;;;;;;;8.10;4.60;;;7.50;99.90;;;;;;5052890;28;20232;-68
2024/04/04 11:41:50;;;;;;;12.90;5.17;;;7.60;99.90;;;;;;5058883;28;20181;-68
2024/04/04 11:44:17;;;;;;;6.80;4.20;;;7.10;99.90;;;;;;5063455;28;20185;-68
2024/04/04 11:46:44;;;;;;;11.00;5.60;;;7.60;99.90;;;;;;5057790;28;20217;-68
2024/04/04 11:49:16;;;;;;;9.17;5.03;;;7.70;99.90;;;;;;5058825;28;20217;-69
2024/04/04 11:51:45;;;;;;;8.43;4.90;;;7.70;99.90;;;;;;5047298;28;20672;-69
2024/04/04 11:54:11;;;;;;;8.43;5.07;;;7.70;99.90;;;;;;5054469;28;20217;-68
2024/04/04 11:56:39;;;;;;;10.03;5.87;;;7.70;99.90;;;;;;5051809;28;20274;-69
2024/04/04 11:59:06;;;;;;;9.70;5.80;;;7.70;99.90;;;;;;5042794;28;20276;-69
2024/04/04 12:01:33;;;;;;;8.30;5.53;;;7.80;99.90;;;;;;5049707;28;20190;-69
2024/04/04 12:03:59;;;;;;;11.13;6.03;;;7.80;99.90;;;;;;5044731;28;20260;-68
2024/04/04 12:06:26;;;;;;;13.83;6.73;;;7.80;99.90;;;;;;5046382;28;20197;-69
2024/04/04 12:08:54;;;;;;;11.57;5.80;;;7.80;99.90;;;;;;5050099;28;20201;-69
2024/04/04 12:11:22;;;;;;;16.87;7.03;;;7.80;99.90;;;;;;5050904;28;20219;-68
2024/04/04 12:13:50;;;;;;;11.70;6.30;;;7.80;99.90;;;;;;5049550;28;20289;-69
2024/04/04 12:16:19;;;;;;;15.23;7.40;;;7.80;99.90;;;;;;5051370;28;20678;-68
2024/04/04 12:21:30;;;;;;;10.07;5.97;;;7.80;99.90;;;;;;5046582;28;20277;-70
2024/04/04 12:23:59;;;;;;;11.23;6.30;;;7.80;99.90;;;;;;5049753;28;20201;-69
2024/04/04 12:26:28;;;;;;;11.33;7.13;;;7.80;99.90;;;;;;5049451;28;20290;-69
2024/04/04 12:28:54;;;;;;;11.23;6.80;;;7.90;99.90;;;;;;5045279;28;20324;-69
2024/04/04 12:31:21;;;;;;;13.03;6.70;;;7.90;99.90;;;;;;5050049;28;20649;-69
2024/04/04 12:33:47;;;;;;;11.60;6.77;;;7.90;99.90;;;;;;5049396;28;20228;-69
2024/04/04 12:36:15;;;;;;;15.60;8.43;;;7.90;99.90;;;;;;5050815;28;20549;-69
2024/04/04 12:38:41;;;;;;;16.00;8.43;;;8.00;99.90;;;;;;5050555;28;20319;-70
2024/04/04 12:41:10;;;;;;;16.30;8.20;;;7.90;99.90;;;;;;5050083;28;20191;-69
2024/04/04 12:43:36;;;;;;;14.63;8.80;;;7.90;99.90;;;;;;5050679;28;20288;-69
2024/04/04 12:46:04;;;;;;;12.20;7.87;;;7.90;99.90;;;;;;5050622;28;20189;-69
2024/04/04 12:48:31;;;;;;;14.20;7.73;;;7.90;99.90;;;;;;5051459;28;20571;-70
2024/04/04 12:50:58;;;;;;;15.47;7.90;;;8.00;99.90;;;;;;5052277;28;20194;-70
2024/04/04 12:53:25;;;;;;;13.63;8.43;;;8.00;99.90;;;;;;5049655;28;20204;-70
2024/04/04 12:55:53;;;;;;;21.23;9.43;;;8.00;99.90;;;;;;5051261;28;20209;-69
2024/04/04 12:58:20;;;;;;;15.00;9.00;;;8.00;99.90;;;;;;5043636;28;20194;-70
2024/04/04 13:00:47;;;;;;;14.83;8.70;;;8.10;99.90;;;;;;5047000;28;20198;-69
2024/04/04 13:03:14;;;;;;;18.63;8.37;;;8.10;99.90;;;;;;5046188;28;20778;-70